createdAt,value
2018-12-23T00:00:53.188Z,46.87
2018-12-23T00:03:20.595Z,53.63
2018-12-23T00:05:48.221Z,58.80
2018-12-23T00:08:15.656Z,71.27
2018-12-23T00:10:43.326Z,70.03
2018-12-23T00:13:10.893Z,63.20
2018-12-23T00:15:38.673Z,55.50
2018-12-23T00:18:06.143Z,47.43
2018-12-23T00:20:33.524Z,47.23
2018-12-23T00:23:00.929Z,50.07
2018-12-23T00:25:28.497Z,42.70
2018-12-23T00:27:55.864Z,40.03
2018-12-23T00:30:23.269Z,42.07
2018-12-23T00:32:50.633Z,42.13
2018-12-23T00:35:20.540Z,37.97
2018-12-23T00:37:47.471Z,34.53
2018-12-23T00:40:14.892Z,39.33
2018-12-23T00:42:42.625Z,37.30
2018-12-23T00:45:10.009Z,35.03
2018-12-23T00:47:37.451Z,36.43
2018-12-23T00:50:06.541Z,33.87
2018-12-23T00:52:33.936Z,37.13
2018-12-23T00:55:01.335Z,37.80
2018-12-23T00:57:28.746Z,40.50
2018-12-23T00:59:56.227Z,43.13
2018-12-23T01:02:23.670Z,39.43
2018-12-23T01:04:51.093Z,41.23
2018-12-23T01:07:18.528Z,38.13
2018-12-23T01:09:46.029Z,53.17
2018-12-23T01:12:13.632Z,64.37
2018-12-23T01:14:41.098Z,70.17
2018-12-23T01:17:08.506Z,56.03
2018-12-23T01:19:35.899Z,39.60
2018-12-23T01:22:03.288Z,38.03
2018-12-23T01:24:30.712Z,35.00
2018-12-23T01:26:58.165Z,32.57
2018-12-23T01:29:25.745Z,30.10
2018-12-23T01:31:53.135Z,32.40
2018-12-23T01:34:20.526Z,30.80
2018-12-23T01:36:48.102Z,28.53
2018-12-23T01:39:15.532Z,26.47
2018-12-23T01:41:42.904Z,30.67
2018-12-23T01:44:10.337Z,30.20
2018-12-23T01:46:37.757Z,27.43
2018-12-23T01:49:05.284Z,30.60
2018-12-23T01:51:32.700Z,31.13
2018-12-23T01:54:00.225Z,31.23
2018-12-23T01:56:27.620Z,31.27
2018-12-23T01:58:55.257Z,31.10
2018-12-23T02:01:22.701Z,35.03
2018-12-23T02:03:50.209Z,35.60
2018-12-23T02:06:17.997Z,36.43
2018-12-23T02:08:45.381Z,37.13
2018-12-23T02:11:12.813Z,34.10
2018-12-23T02:13:40.236Z,36.43
2018-12-23T02:16:07.845Z,35.53
2018-12-23T02:18:35.233Z,35.50
2018-12-23T02:21:02.793Z,36.03
2018-12-23T02:23:30.205Z,34.50
2018-12-23T02:25:57.580Z,33.23
2018-12-23T02:28:25.005Z,33.87
2018-12-23T02:30:52.380Z,34.17
2018-12-23T02:33:19.814Z,38.27
2018-12-23T02:35:55.286Z,38.63
2018-12-23T02:38:16.766Z,36.90
2018-12-23T02:40:44.246Z,35.43
2018-12-23T02:43:11.619Z,32.73
2018-12-23T02:45:39.137Z,40.60
2018-12-23T02:48:06.957Z,35.13
2018-12-23T02:50:34.336Z,33.37
2018-12-23T02:53:01.712Z,32.93
2018-12-23T02:55:29.158Z,36.77
2018-12-23T02:57:56.600Z,34.67
2018-12-23T03:00:24.064Z,40.00
2018-12-23T03:02:51.477Z,31.53
2018-12-23T03:05:18.876Z,39.47
2018-12-23T03:07:46.250Z,39.33
2018-12-23T03:10:13.665Z,43.73
2018-12-23T03:12:41.085Z,40.93
2018-12-23T03:15:08.497Z,36.70
2018-12-23T03:17:36.319Z,39.20
2018-12-23T03:20:04.234Z,45.10
2018-12-23T03:22:31.599Z,36.40
2018-12-23T03:24:59.280Z,41.50
2018-12-23T03:27:26.704Z,41.33
2018-12-23T03:29:54.083Z,40.30
2018-12-23T03:32:21.504Z,42.87
2018-12-23T03:34:48.889Z,38.40
2018-12-23T03:37:16.366Z,34.83
2018-12-23T03:39:44.046Z,34.97
2018-12-23T03:42:11.470Z,36.43
2018-12-23T03:44:38.919Z,36.83
2018-12-23T03:47:06.345Z,35.87
2018-12-23T03:49:33.848Z,26.80
2018-12-23T03:52:01.396Z,31.37
2018-12-23T03:54:28.849Z,32.87
2018-12-23T03:56:56.240Z,29.80
2018-12-23T03:59:23.806Z,33.27
2018-12-23T04:01:51.252Z,31.73
2018-12-23T04:04:18.677Z,25.83
2018-12-23T04:06:46.104Z,30.70
2018-12-23T04:09:13.523Z,31.77
2018-12-23T04:11:40.925Z,28.20
2018-12-23T04:14:08.324Z,29.00
2018-12-23T04:16:35.772Z,26.07
2018-12-23T04:19:03.296Z,27.87
2018-12-23T04:21:30.675Z,27.50
2018-12-23T04:23:58.453Z,31.80
2018-12-23T04:26:25.833Z,32.83
2018-12-23T04:28:53.236Z,25.83
2018-12-23T04:31:20.640Z,27.53
2018-12-23T04:33:48.020Z,26.83
2018-12-23T04:36:15.454Z,30.10
2018-12-23T04:38:42.881Z,35.03
2018-12-23T04:41:10.247Z,34.90
2018-12-23T04:43:37.628Z,31.83
2018-12-23T04:46:05.158Z,31.90
2018-12-23T04:48:32.537Z,36.17
2018-12-23T04:50:59.938Z,34.83
2018-12-23T04:53:27.333Z,36.43
2018-12-23T04:55:54.718Z,33.23
2018-12-23T04:58:22.138Z,41.70
2018-12-23T05:00:50.790Z,44.63
2018-12-23T05:03:18.177Z,43.43
2018-12-23T05:05:45.560Z,42.30
2018-12-23T05:08:13.294Z,32.43
2018-12-23T05:10:40.685Z,38.17
2018-12-23T05:13:08.137Z,36.80
2018-12-23T05:15:35.758Z,34.90
2018-12-23T05:18:03.165Z,32.33
2018-12-23T05:20:30.551Z,36.57
2018-12-23T05:22:57.956Z,36.30
2018-12-23T05:25:25.321Z,35.60
2018-12-23T05:27:52.744Z,35.17
2018-12-23T05:30:20.165Z,31.50
2018-12-23T05:32:47.601Z,34.37
2018-12-23T05:35:14.988Z,31.40
2018-12-23T05:37:42.426Z,27.63
2018-12-23T05:40:09.814Z,34.47
2018-12-23T05:42:37.234Z,33.63
2018-12-23T05:45:05.106Z,30.63
2018-12-23T05:47:32.757Z,30.90
2018-12-23T05:50:00.177Z,32.63
2018-12-23T05:52:27.678Z,34.63
2018-12-23T05:54:55.332Z,36.30
2018-12-23T05:57:22.696Z,37.67
2018-12-23T05:59:50.077Z,40.53
2018-12-23T06:02:17.521Z,40.07
2018-12-23T06:04:44.929Z,38.13
2018-12-23T06:07:12.328Z,35.53
2018-12-23T06:09:39.734Z,34.93
2018-12-23T06:12:07.135Z,40.53
2018-12-23T06:14:34.521Z,37.20
2018-12-23T06:17:02.281Z,37.83
2018-12-23T06:19:29.657Z,42.30
2018-12-23T06:21:57.069Z,43.40
2018-12-23T06:24:24.481Z,37.37
2018-12-23T06:26:52.135Z,41.43
2018-12-23T06:29:19.516Z,38.73
2018-12-23T06:31:46.905Z,41.10
2018-12-23T06:34:14.305Z,42.30
2018-12-23T06:36:41.777Z,40.20
2018-12-23T06:39:09.537Z,42.00
2018-12-23T06:41:36.933Z,43.13
2018-12-23T06:44:04.312Z,40.90
2018-12-23T06:46:31.697Z,40.67
2018-12-23T06:48:59.128Z,36.50
2018-12-23T06:51:26.493Z,39.67
2018-12-23T06:53:53.991Z,38.97
2018-12-23T06:56:21.421Z,41.90
2018-12-23T06:58:48.805Z,35.00
2018-12-23T07:01:16.177Z,32.73
2018-12-23T07:03:43.588Z,34.23
2018-12-23T07:06:10.973Z,34.53
2018-12-23T07:08:38.345Z,34.37
2018-12-23T07:11:05.713Z,34.70
2018-12-23T07:13:33.085Z,39.17
2018-12-23T07:16:00.467Z,41.23
2018-12-23T07:18:27.865Z,35.03
2018-12-23T07:20:55.367Z,42.23
2018-12-23T07:23:23.268Z,39.17
2018-12-23T07:25:50.676Z,35.83
2018-12-23T07:28:18.177Z,39.87
2018-12-23T07:30:45.576Z,41.33
2018-12-23T07:33:13.274Z,35.90
2018-12-23T07:35:40.680Z,41.53
2018-12-23T07:38:08.089Z,41.50
2018-12-23T07:40:35.518Z,40.57
2018-12-23T07:43:02.943Z,43.43
2018-12-23T07:45:30.337Z,41.70
2018-12-23T07:47:57.788Z,44.63
2018-12-23T07:50:25.180Z,43.43
2018-12-23T07:52:52.573Z,39.37
2018-12-23T07:55:19.937Z,40.77
2018-12-23T07:57:47.308Z,42.53
2018-12-23T08:00:14.738Z,51.13
2018-12-23T08:02:42.104Z,50.00
2018-12-23T08:05:09.469Z,42.50
2018-12-23T08:07:36.892Z,48.30
2018-12-23T08:10:04.523Z,51.40
2018-12-23T08:12:31.910Z,51.00
2018-12-23T08:14:59.333Z,55.37
2018-12-23T08:17:26.741Z,59.00
2018-12-23T08:19:54.179Z,60.20
2018-12-23T08:22:21.558Z,56.03
2018-12-23T08:24:48.957Z,51.50
2018-12-23T08:27:16.329Z,55.60
2018-12-23T08:29:43.713Z,41.73
2018-12-23T08:32:11.521Z,47.03
2018-12-23T08:34:38.960Z,39.30
2018-12-23T08:37:06.466Z,34.57
2018-12-23T08:39:34.000Z,33.63
2018-12-23T08:42:01.372Z,34.13
2018-12-23T08:44:28.828Z,36.43
2018-12-23T08:46:56.494Z,38.50
2018-12-23T08:49:23.860Z,40.07
2018-12-23T08:51:51.240Z,45.80
2018-12-23T08:54:18.688Z,42.47
2018-12-23T08:56:46.157Z,41.77
2018-12-23T08:59:13.541Z,50.27
2018-12-23T09:02:21.149Z,51.77
2018-12-23T09:04:50.694Z,51.77
2018-12-23T09:07:20.237Z,51.20
2018-12-23T09:09:50.070Z,49.83
2018-12-23T09:12:19.620Z,54.17
2018-12-23T09:14:49.270Z,56.40
2018-12-23T09:17:18.832Z,47.50
2018-12-23T09:19:48.390Z,52.23
2018-12-23T09:22:19.749Z,51.77
2018-12-23T09:24:49.441Z,62.80
2018-12-23T09:27:18.983Z,78.17
2018-12-23T09:29:48.646Z,70.77
2018-12-23T09:32:18.196Z,64.57
2018-12-23T09:34:47.751Z,65.93
2018-12-23T09:37:17.367Z,71.67
2018-12-23T09:39:46.917Z,68.57
2018-12-23T09:42:16.469Z,72.43
2018-12-23T09:44:46.100Z,75.20
2018-12-23T09:47:15.701Z,72.27
2018-12-23T09:49:45.500Z,61.07
2018-12-23T09:52:15.131Z,57.70
2018-12-23T09:54:44.682Z,56.93
2018-12-23T09:57:14.231Z,64.30
2018-12-23T09:59:43.789Z,53.60
2018-12-23T10:02:13.353Z,56.60
2018-12-23T10:04:42.921Z,65.87
2018-12-23T10:07:12.466Z,71.63
2018-12-23T10:09:42.045Z,68.33
2018-12-23T10:12:11.637Z,66.63
2018-12-23T10:14:41.586Z,69.17
2018-12-23T10:17:11.181Z,60.63
2018-12-23T10:19:40.805Z,60.50
2018-12-23T10:22:10.390Z,71.20
2018-12-23T10:24:40.046Z,71.93
2018-12-23T10:27:09.647Z,74.43
2018-12-23T10:29:39.222Z,61.10
2018-12-23T10:32:08.759Z,58.77
2018-12-23T10:34:38.381Z,57.47
2018-12-23T10:37:07.945Z,60.87
2018-12-23T10:39:37.505Z,53.07
2018-12-23T10:42:07.087Z,49.90
2018-12-23T10:44:36.630Z,51.37
2018-12-23T10:47:06.263Z,54.73
2018-12-23T10:49:35.860Z,68.03
2018-12-23T10:52:05.443Z,67.83
2018-12-23T10:54:36.198Z,75.03
2018-12-23T10:57:06.052Z,74.00
2018-12-23T10:59:35.696Z,74.27
2018-12-23T11:02:13.431Z,63.83
2018-12-23T11:04:36.841Z,64.80
2018-12-23T11:07:06.418Z,69.07
2018-12-23T11:09:35.977Z,65.57
2018-12-23T11:12:05.531Z,61.47
2018-12-23T11:14:35.570Z,53.77
2018-12-23T11:17:05.133Z,57.90
2018-12-23T11:19:34.673Z,55.97
2018-12-23T11:22:04.253Z,54.70
2018-12-23T11:24:33.918Z,52.83
2018-12-23T11:27:03.557Z,49.13
2018-12-23T11:29:33.188Z,52.03
2018-12-23T11:32:02.771Z,51.50
2018-12-23T11:34:32.317Z,58.17
2018-12-23T11:37:01.865Z,55.70
2018-12-23T11:39:31.705Z,68.43
2018-12-23T11:42:01.272Z,63.87
2018-12-23T11:44:30.897Z,59.40
2018-12-23T11:47:00.559Z,58.70
2018-12-23T11:49:30.154Z,57.83
2018-12-23T11:51:59.726Z,58.37
2018-12-23T11:54:29.578Z,56.53
2018-12-23T11:56:59.143Z,51.47
2018-12-23T11:59:28.722Z,55.27
2018-12-23T12:01:58.336Z,48.03
2018-12-23T12:04:27.916Z,50.77
2018-12-23T12:06:57.479Z,56.97
2018-12-23T12:09:27.083Z,51.83
2018-12-23T12:11:56.657Z,65.10
2018-12-23T12:14:26.209Z,62.23
2018-12-23T12:16:55.798Z,57.30
2018-12-23T12:19:25.706Z,53.93
2018-12-23T12:21:55.246Z,50.43
2018-12-23T12:24:24.798Z,53.10
2018-12-23T12:26:54.366Z,57.50
2018-12-23T12:29:23.914Z,60.63
2018-12-23T12:31:53.590Z,55.17
2018-12-23T12:34:23.158Z,54.33
2018-12-23T12:36:52.726Z,51.00
2018-12-23T12:39:22.593Z,45.00
2018-12-23T12:41:52.165Z,47.10
2018-12-23T12:44:21.812Z,44.77
2018-12-23T12:46:51.570Z,41.40
2018-12-23T12:49:21.186Z,38.53
2018-12-23T12:51:50.734Z,37.33
2018-12-23T12:54:20.390Z,36.07
2018-12-23T12:56:50.014Z,35.67
2018-12-23T12:59:19.909Z,34.10
2018-12-23T13:01:49.493Z,38.33
2018-12-23T13:04:19.062Z,36.20
2018-12-23T13:06:48.675Z,42.93
2018-12-23T13:09:18.232Z,50.00
2018-12-23T13:11:48.057Z,51.63
2018-12-23T13:14:17.602Z,59.37
2018-12-23T13:16:47.177Z,65.60
2018-12-23T13:19:16.742Z,65.40
2018-12-23T13:21:46.304Z,69.93
2018-12-23T13:24:15.870Z,67.27
2018-12-23T13:26:45.410Z,72.77
2018-12-23T13:29:14.997Z,73.67
2018-12-23T13:31:44.555Z,68.17
2018-12-23T13:34:14.102Z,72.63
2018-12-23T13:36:43.661Z,68.00
2018-12-23T13:39:13.578Z,72.33
2018-12-23T13:42:00.811Z,71.07
2018-12-23T13:44:50.938Z,70.60
2018-12-23T13:48:09.326Z,66.60
2018-12-23T13:51:19.142Z,65.43
2018-12-23T13:54:16.587Z,68.17
2018-12-23T13:57:20.818Z,67.13
2018-12-23T14:00:30.870Z,64.80
2018-12-23T14:04:00.006Z,68.43
2018-12-23T14:07:05.467Z,65.00
2018-12-23T14:09:59.622Z,63.67
2018-12-23T14:12:29.194Z,67.13
2018-12-23T14:14:58.744Z,71.37
2018-12-23T14:17:28.317Z,70.57
2018-12-23T14:19:57.922Z,62.57
2018-12-23T14:22:27.498Z,72.83
2018-12-23T14:24:57.081Z,57.63
2018-12-23T14:27:26.633Z,59.43
2018-12-23T14:29:57.406Z,58.07
2018-12-23T14:32:27.194Z,60.83
2018-12-23T14:34:56.924Z,56.80
2018-12-23T14:37:26.643Z,59.20
2018-12-23T14:39:56.213Z,56.50
2018-12-23T14:42:25.754Z,56.60
2018-12-23T14:44:55.294Z,55.23
2018-12-23T14:47:24.858Z,52.40
2018-12-23T14:49:54.445Z,53.20
2018-12-23T14:52:24.057Z,57.53
2018-12-23T14:54:53.602Z,54.53
2018-12-23T14:57:23.183Z,57.30
2018-12-23T14:59:52.776Z,61.97
2018-12-23T15:02:22.695Z,64.20
2018-12-23T15:04:52.339Z,57.17
2018-12-23T15:07:21.893Z,65.03
2018-12-23T15:09:51.458Z,60.50
2018-12-23T15:12:20.999Z,62.60
2018-12-23T15:14:50.537Z,59.07
2018-12-23T15:17:20.110Z,56.10
2018-12-23T15:19:49.646Z,55.30
2018-12-23T15:22:19.189Z,63.07
2018-12-23T15:24:48.794Z,59.43
2018-12-23T15:27:18.394Z,59.40
2018-12-23T15:29:47.929Z,59.97
2018-12-23T15:32:17.469Z,63.27
2018-12-23T15:34:47.329Z,54.40
2018-12-23T15:37:16.894Z,58.53
2018-12-23T15:39:46.438Z,64.43
2018-12-23T15:42:16.014Z,59.77
2018-12-23T15:44:45.574Z,68.77
2018-12-23T15:47:15.130Z,64.60
2018-12-23T15:49:44.690Z,70.93
2018-12-23T15:52:14.238Z,64.73
2018-12-23T15:54:46.334Z,61.63
2018-12-23T15:57:15.112Z,76.40
2018-12-23T15:59:44.637Z,69.13
2018-12-23T16:02:14.202Z,74.07
2018-12-23T16:04:43.766Z,68.67
2018-12-23T16:07:13.398Z,71.63
2018-12-23T16:09:50.956Z,70.73
2018-12-23T16:12:14.262Z,78.37
2018-12-23T16:14:43.827Z,69.53
2018-12-23T16:17:13.382Z,76.73
2018-12-23T16:19:42.941Z,74.40
2018-12-23T16:22:12.481Z,67.90
2018-12-23T16:24:42.555Z,63.23
2018-12-23T16:27:12.169Z,65.27
2018-12-23T16:29:41.728Z,69.57
2018-12-23T16:32:11.309Z,58.73
2018-12-23T16:34:40.858Z,54.87
2018-12-23T16:37:10.725Z,53.87
2018-12-23T16:39:40.357Z,57.57
2018-12-23T16:42:09.914Z,55.17
2018-12-23T16:44:39.851Z,46.17
2018-12-23T16:47:09.469Z,58.67
2018-12-23T16:49:40.913Z,61.50
2018-12-23T16:52:10.315Z,55.80
2018-12-23T16:54:39.968Z,58.37
2018-12-23T16:57:09.515Z,54.00
2018-12-23T16:59:39.146Z,62.23
2018-12-23T17:02:08.736Z,60.63
2018-12-23T17:04:38.386Z,57.43
2018-12-23T17:07:07.958Z,59.47
2018-12-23T17:09:37.818Z,61.70
2018-12-23T17:12:07.366Z,56.90
2018-12-23T17:14:36.914Z,66.97
2018-12-23T17:17:06.562Z,62.67
2018-12-23T17:19:36.128Z,61.83
2018-12-23T17:22:05.778Z,67.80
2018-12-23T17:24:35.461Z,64.63
2018-12-23T17:27:05.105Z,66.93
2018-12-23T17:29:34.861Z,60.87
2018-12-23T17:32:04.406Z,63.93
2018-12-23T17:34:34.054Z,59.10
2018-12-23T17:37:03.640Z,63.90
2018-12-23T17:39:33.206Z,63.27
2018-12-23T17:42:02.858Z,57.53
2018-12-23T17:44:32.490Z,60.40
2018-12-23T17:47:02.045Z,62.27
2018-12-23T17:49:31.690Z,65.13
2018-12-23T17:52:01.356Z,71.07
2018-12-23T17:54:30.927Z,74.67
2018-12-23T17:57:00.594Z,76.13
2018-12-23T17:59:30.150Z,75.40
2018-12-23T18:01:59.834Z,86.10
2018-12-23T18:04:29.458Z,90.33
2018-12-23T18:07:03.666Z,91.93
2018-12-23T18:09:30.489Z,101.03
2018-12-23T18:12:00.069Z,92.20
2018-12-23T18:14:29.750Z,103.50
2018-12-23T18:16:59.422Z,96.73
2018-12-23T18:19:31.439Z,82.80
2018-12-23T18:22:01.063Z,73.83
2018-12-23T18:24:30.696Z,82.77
2018-12-23T18:27:00.285Z,66.67
2018-12-23T18:29:29.878Z,68.73
2018-12-23T18:31:59.532Z,66.53
2018-12-23T18:34:29.535Z,64.30
2018-12-23T18:36:59.121Z,65.93
2018-12-23T18:39:28.658Z,67.40
2018-12-23T18:41:58.577Z,58.80
2018-12-23T18:44:28.146Z,71.20
2018-12-23T18:46:57.734Z,56.07
2018-12-23T18:49:27.314Z,64.57
2018-12-23T18:51:56.898Z,62.87
2018-12-23T18:54:26.502Z,56.77
2018-12-23T18:57:02.279Z,64.23
2018-12-23T18:59:34.750Z,62.60
2018-12-23T19:02:09.123Z,65.20
2018-12-23T19:04:39.212Z,67.00
2018-12-23T19:07:08.966Z,68.53
2018-12-23T19:09:47.277Z,57.80
2018-12-23T19:13:01.686Z,58.80
2018-12-23T19:16:17.082Z,69.00
2018-12-23T19:19:38.923Z,62.60
2018-12-23T19:22:45.706Z,62.63
2018-12-23T19:25:52.325Z,65.13
2018-12-23T19:29:09.273Z,62.67
2018-12-23T19:32:37.842Z,64.03
2018-12-23T19:35:41.140Z,60.00
2018-12-23T19:38:59.834Z,72.17
2018-12-23T19:41:48.793Z,65.63
2018-12-23T19:45:05.185Z,64.03
2018-12-23T19:48:11.970Z,52.00
2018-12-23T19:51:25.709Z,64.03
2018-12-23T19:54:42.662Z,70.00
2018-12-23T19:57:28.730Z,69.30
2018-12-23T20:00:21.877Z,68.23
2018-12-23T20:03:47.662Z,68.70
2018-12-23T20:07:13.279Z,68.90
2018-12-23T20:10:11.278Z,63.23
2018-12-23T20:13:02.314Z,59.37
2018-12-23T20:16:07.175Z,66.03
2018-12-23T20:19:22.602Z,64.60
2018-12-23T20:22:48.359Z,62.13
2018-12-23T20:25:55.954Z,57.43
2018-12-23T20:29:01.459Z,54.17
2018-12-23T20:32:07.211Z,56.03
2018-12-23T20:35:32.373Z,57.47
2018-12-23T20:38:22.070Z,60.27
2018-12-23T20:41:37.684Z,53.83
2018-12-23T20:45:06.542Z,60.80
2018-12-23T20:48:19.127Z,55.20
2018-12-23T20:51:34.306Z,58.20
2018-12-23T20:54:44.649Z,58.47
2018-12-23T20:57:27.675Z,59.77
2018-12-23T21:00:35.449Z,53.40
2018-12-23T21:03:33.246Z,54.07
2018-12-23T21:06:44.969Z,62.33
2018-12-23T21:09:43.690Z,53.90
2018-12-23T21:12:57.151Z,55.50
2018-12-23T21:16:07.393Z,53.33
2018-12-23T21:19:02.200Z,47.00
2018-12-23T21:22:02.954Z,54.43
2018-12-23T21:25:32.010Z,55.47
2018-12-23T21:28:45.588Z,54.07
2018-12-23T21:31:58.781Z,48.03
2018-12-23T21:35:04.537Z,55.97
2018-12-23T21:38:12.303Z,48.83
2018-12-23T21:41:08.882Z,48.63
2018-12-23T21:44:38.318Z,56.17
2018-12-23T21:47:48.561Z,62.40
2018-12-23T21:51:04.902Z,57.47
2018-12-23T21:54:23.338Z,62.80
2018-12-23T21:57:46.142Z,59.13
2018-12-23T22:00:57.973Z,63.90
2018-12-23T22:04:26.513Z,58.97
2018-12-23T22:07:48.933Z,59.87
2018-12-23T22:11:06.066Z,62.20
2018-12-23T22:13:35.758Z,59.50
2018-12-23T22:16:05.464Z,69.17
2018-12-23T22:18:35.262Z,69.93
2018-12-23T22:21:04.938Z,62.77
2018-12-23T22:23:34.591Z,61.47
2018-12-23T22:26:05.197Z,64.00
2018-12-23T22:28:35.011Z,60.00
2018-12-23T22:31:04.569Z,64.77
2018-12-23T22:33:34.218Z,55.07
2018-12-23T22:36:04.162Z,61.77
2018-12-23T22:38:33.828Z,60.67
2018-12-23T22:41:13.521Z,60.27
2018-12-23T22:43:43.174Z,59.27
2018-12-23T22:46:12.742Z,57.70
2018-12-23T22:48:42.509Z,63.53
2018-12-23T22:51:12.111Z,57.73
2018-12-23T22:53:41.658Z,60.83
2018-12-23T22:56:11.327Z,59.93
2018-12-23T22:58:40.974Z,56.63
2018-12-23T23:01:10.697Z,53.40
2018-12-23T23:03:40.266Z,59.23
2018-12-23T23:06:09.898Z,57.40
2018-12-23T23:08:39.663Z,61.07
2018-12-23T23:11:09.210Z,55.30
2018-12-23T23:13:38.758Z,54.70
2018-12-23T23:16:08.329Z,60.73
2018-12-23T23:18:37.998Z,61.57
2018-12-23T23:21:07.562Z,62.13
2018-12-23T23:23:37.261Z,56.10
2018-12-23T23:26:06.931Z,61.60
2018-12-23T23:28:36.537Z,58.53
2018-12-23T23:31:06.233Z,65.97
2018-12-23T23:33:35.862Z,63.87
2018-12-23T23:36:05.410Z,62.67
2018-12-23T23:38:34.955Z,64.67
2018-12-23T23:41:04.631Z,57.93
2018-12-23T23:43:34.266Z,58.90
2018-12-23T23:46:03.862Z,59.07
2018-12-23T23:48:33.405Z,62.20
2018-12-23T23:51:03.006Z,62.40
2018-12-23T23:53:32.627Z,61.93
2018-12-23T23:56:04.978Z,65.57
2018-12-23T23:58:34.897Z,69.57
